AirNav   Everest Fuels
 
 1057 users online  

60IS Nelson Private Airport
Browns, Illinois, USA

GOING TO BROWNS?


FAA INFORMATION EFFECTIVE 21 MAY 2020

Location

FAA Identifier: 60IS
Lat/Long: 38-24-02.1750N 087-59-19.1190W
38-24.036250N 087-59.318650W
38.4006042,-87.9886442
(estimated)
Elevation: 420 ft. / 128 m (estimated)
Variation: 00E (1985)
From city: 1 mile N of BROWNS, IL
Time zone: UTC -5 (UTC -6 during Standard Time)
Zip code: 62815

Airport Operations

Airport use: Private use. Permission required prior to landing
Activation date: 03/1988
Control tower: no
ARTCC: INDIANAPOLIS CENTER
FSS: COLUMBIA FLIGHT SERVICE STATION
Attendance: CONTINUOUS
Wind indicator: yes
Segmented circle: no

Airport Communications

WX AWOS-3 at AJG (17 nm NE): 134.900 (618-948-2184)
WX AWOS-3 at CUL (20 nm S): 118.425 (618-382-3760)
WX AWOS-3 at FWC (20 nm W): 119.425 (618-847-4709)

Nearby radio navigation aids

VOR radial/distance  VOR name  Freq  Var
SAMr135/6.8SAMSVILLE VOR/DME116.6003E
PXVr336/30.3POCKET CITY VORTAC113.3003E
BIBr140/38.8BIBLE GROVE VORTAC109.0003E

 
NDB name  Hdg/Dist  Freq  Var  ID
WAYNE COUNTY087/19.825701WFWC ..-. .-- -.-.
OLNEY159/20.927203WOLY --- .-.. -.--

Airport Services

Runway Information

Runway 16/34

Dimensions: 4000 x 100 ft. / 1219 x 30 m
Surface: turf
RUNWAY 16  RUNWAY 34
Traffic pattern: leftleft
Obstructions: 15 ft. road8 ft. crops

Airport Ownership and Management from official FAA records

Ownership: Privately-owned
Owner: DWIGHT NELSON
RR 1
BROWNS, IL 62818
Phone 618-446-5150
Manager: DWIGHT NELSON
RR 1
BROWNS, IL 62818
Phone 618-446-5150

Airport Operational Statistics

Aircraft based on the field: 1
Single engine airplanes: 1
    

Additional Remarks

FOR CD CTC EVANSVILLE APCH AT 812-436-4690, WHEN APCH CLSD CTC INDIANAPOLIS ARTCC AT 317-247-2411.

Instrument Procedures

There are no published instrument procedures at 60IS.

Some nearby airports with instrument procedures:

KAJG - Mount Carmel Municipal Airport (17 nm NE)
KCUL - Carmi Municipal Airport (20 nm S)
KFWC - Fairfield Municipal Airport (20 nm W)
KOLY - Olney-Noble Airport (21 nm NW)
KFOA - Flora Municipal Airport (27 nm NW)
 
Loc | Ops | Rwys | IFR | FBO | Links
Com | Nav | Svcs | Stats | Notes
Area around 60IS (Nelson Private Airport)
 
Road maps at: MapQuest Bing Google
 
Aerial photo
No photo
 
Sectional chart

 
Airport distance calculator
Flying to Nelson Private Airport? Find the distance to fly.

From to 60IS

Sunrise and sunset
Times for 05-Jun-2020
 Local
(UTC-5)
 Zulu
(UTC)
Morning civil twilight04:5809:58
Sunrise05:2910:29
Sunset20:1201:12
Evening civil twilight20:4301:43

Current date and time
Zulu (UTC)  05-Jun-2020 22:39:58
Local (UTC-5)  05-Jun-2020 17:39:58
 
METAR
KAJG 
17nm NE 
052215Z AUTO 22007KT 10SM SCT048 30/19 A2989 RMK AO2 T03010187
KCUL 
20nm S 
052217Z AUTO 00000KT 10SM CLR 31/21 A2989 RMK AO2
KFWC 
20nm W 
052215Z AUTO 00000KT 10SM CLR 31/20 A2987 RMK AO1 T03070196
KOLY 
21nm NW 
052215Z AUTO 21004KT 10SM CLR 31/18 A2989 RMK AO2 T03080176
KFOA 
27nm NW 
052215Z AUTO 23005KT 10SM CLR 31/19 A2988 RMK AO2
KLWV 
29nm NE 
052153Z AUTO 31/20 A2989 RMK AO2 SLPNO T03110200 PWINO
KEVV 
31nm SE 
052154Z 18003KT 10SM CLR 30/19 A2989 RMK AO2 SLP118 T03000189
TAF
KEVV 
31nm SE 
051759Z 0518/0618 19004KT P6SM SCT035 FM061400 10006KT P6SM SCT250
NOTAMs
Click for the latest NOTAMs
NOTAMs are issued by the DoD/FAA and will open in a separate window not controlled by AirNav.

 

 
 

Would you like to see your business listed on this page?

 If your business provides an interesting product or service to pilots, flight crews, aircraft, or users of the Nelson Private Airport, you should consider listing it here.  To start the listing process, click on the button below
 
Add a business
 

Other Pages about Nelson Private Airport

Update a link
 
Copyright © AirNav, LLC. All rights reserved. Privacy Policy  Contact